createdAt,value
2019-03-30T00:02:13.441Z,7.03
2019-03-30T00:04:43.491Z,7.03
2019-03-30T00:07:13.567Z,6.73
2019-03-30T00:09:43.889Z,6.90
2019-03-30T00:12:14.000Z,7.10
2019-03-30T00:14:44.305Z,7.03
2019-03-30T00:17:14.388Z,7.00
2019-03-30T00:19:44.435Z,7.17
2019-03-30T00:22:14.517Z,7.40
2019-03-30T00:24:44.569Z,7.13
2019-03-30T00:27:14.628Z,7.10
2019-03-30T00:29:44.935Z,6.97
2019-03-30T00:32:15.543Z,6.80
2019-03-30T00:34:45.628Z,7.73
2019-03-30T00:37:15.682Z,6.97
2019-03-30T00:39:45.742Z,7.40
2019-03-30T00:42:15.799Z,6.90
2019-03-30T00:44:45.889Z,7.90
2019-03-30T00:47:15.970Z,6.93
2019-03-30T00:49:49.655Z,6.87
2019-03-30T00:52:17.769Z,7.77
2019-03-30T00:54:47.817Z,6.67
2019-03-30T00:57:17.881Z,7.97
2019-03-30T00:59:47.953Z,7.33
2019-03-30T01:02:18.560Z,7.27
2019-03-30T01:04:48.634Z,7.77
2019-03-30T01:07:18.737Z,7.27
2019-03-30T01:09:48.813Z,6.70
2019-03-30T01:12:19.193Z,7.13
2019-03-30T01:14:49.273Z,7.23
2019-03-30T01:17:19.590Z,6.90
2019-03-30T01:20:02.408Z,7.30
2019-03-30T01:22:21.390Z,6.40
2019-03-30T01:24:51.464Z,7.47
2019-03-30T01:27:21.522Z,6.63
2019-03-30T01:29:51.578Z,6.37
2019-03-30T01:32:21.919Z,6.90
2019-03-30T01:34:51.980Z,6.60
2019-03-30T01:37:22.317Z,6.73
2019-03-30T01:39:52.389Z,7.03
2019-03-30T01:42:22.439Z,7.30
2019-03-30T01:44:52.638Z,7.07
2019-03-30T01:47:22.944Z,6.97
2019-03-30T01:49:52.999Z,6.60
2019-03-30T01:52:23.068Z,6.83
2019-03-30T01:54:53.114Z,7.17
2019-03-30T01:57:23.183Z,6.83
2019-03-30T01:59:53.241Z,6.20
2019-03-30T02:02:23.317Z,6.57
2019-03-30T02:04:53.386Z,6.77
2019-03-30T02:07:23.440Z,6.97
2019-03-30T02:09:53.518Z,6.90
2019-03-30T02:12:23.561Z,6.60
2019-03-30T02:14:53.612Z,6.50
2019-03-30T02:17:23.653Z,6.27
2019-03-30T02:19:53.698Z,6.50
2019-03-30T02:22:23.771Z,6.33
2019-03-30T02:24:53.820Z,6.30
2019-03-30T02:27:23.863Z,6.37
2019-03-30T02:29:53.964Z,6.53
2019-03-30T02:32:24.030Z,5.97
2019-03-30T02:34:54.084Z,6.33
2019-03-30T02:37:24.130Z,6.47
2019-03-30T02:39:54.190Z,5.80
2019-03-30T02:42:24.530Z,5.80
2019-03-30T02:44:55.270Z,6.17
2019-03-30T02:47:25.705Z,5.67
2019-03-30T02:49:55.855Z,5.30
2019-03-30T02:52:25.906Z,6.13
2019-03-30T02:54:55.980Z,6.00
2019-03-30T02:57:26.114Z,5.57
2019-03-30T02:59:56.274Z,5.00
2019-03-30T03:02:26.339Z,5.60
2019-03-30T03:04:56.662Z,5.30
2019-03-30T03:07:27.010Z,6.10
2019-03-30T03:09:57.071Z,5.57
2019-03-30T03:12:27.132Z,5.47
2019-03-30T03:14:57.229Z,5.27
2019-03-30T03:17:27.658Z,4.90
2019-03-30T03:19:58.310Z,5.00
2019-03-30T03:22:28.390Z,5.00
2019-03-30T03:24:58.440Z,4.87
2019-03-30T03:27:28.493Z,5.40
2019-03-30T03:29:58.564Z,4.77
2019-03-30T03:32:28.617Z,4.33
2019-03-30T03:34:58.654Z,4.87
2019-03-30T03:37:43.098Z,4.93
2019-03-30T03:40:00.590Z,4.40
2019-03-30T03:42:30.585Z,4.30
2019-03-30T03:45:00.725Z,4.73
2019-03-30T03:47:30.799Z,4.63
2019-03-30T03:50:01.476Z,5.07
2019-03-30T03:52:31.841Z,4.90
2019-03-30T03:55:02.151Z,4.57
2019-03-30T03:57:33.553Z,4.47
2019-03-30T04:00:03.610Z,4.57
2019-03-30T04:02:36.640Z,4.50
2019-03-30T04:05:08.382Z,4.37
2019-03-30T04:07:41.451Z,4.43
2019-03-30T04:10:11.548Z,4.33
2019-03-30T04:12:42.061Z,3.97
2019-03-30T04:15:16.127Z,4.07
2019-03-30T04:17:46.398Z,4.57
2019-03-30T04:20:20.765Z,4.43
2019-03-30T04:22:51.057Z,4.17
2019-03-30T04:25:21.372Z,4.23
2019-03-30T04:27:51.443Z,4.40
2019-03-30T04:30:21.486Z,4.00
2019-03-30T04:32:51.543Z,3.60
2019-03-30T04:35:21.839Z,3.93
2019-03-30T04:37:51.881Z,4.40
2019-03-30T04:40:21.935Z,4.13
2019-03-30T04:42:52.239Z,3.87
2019-03-30T04:45:23.080Z,3.10
2019-03-30T04:47:53.377Z,3.87
2019-03-30T04:50:23.701Z,3.80
2019-03-30T04:52:53.769Z,4.00
2019-03-30T04:55:24.081Z,3.70
2019-03-30T04:57:57.957Z,3.70
2019-03-30T05:00:25.879Z,3.33
2019-03-30T05:02:56.351Z,3.60
2019-03-30T05:05:26.682Z,3.77
2019-03-30T05:07:56.718Z,3.97
2019-03-30T05:10:26.955Z,3.90
2019-03-30T05:12:57.647Z,3.63
2019-03-30T05:15:28.097Z,3.93
2019-03-30T05:17:58.234Z,3.97
2019-03-30T05:20:28.391Z,3.63
2019-03-30T05:22:58.823Z,3.40
2019-03-30T05:25:30.364Z,3.63
2019-03-30T05:28:00.834Z,3.63
2019-03-30T05:30:30.970Z,3.97
2019-03-30T05:33:06.141Z,3.53
2019-03-30T05:35:33.202Z,3.60
2019-03-30T05:38:03.386Z,3.50
2019-03-30T05:40:33.451Z,3.73
2019-03-30T05:43:03.601Z,3.50
2019-03-30T05:45:33.667Z,3.53
2019-03-30T05:48:03.816Z,3.50
2019-03-30T05:50:33.881Z,3.83
2019-03-30T05:53:04.016Z,3.30
2019-03-30T05:55:34.150Z,3.10
2019-03-30T05:58:04.815Z,3.50
2019-03-30T06:00:34.954Z,3.47
2019-03-30T06:03:05.031Z,3.37
2019-03-30T06:05:35.513Z,3.57
2019-03-30T06:08:05.935Z,3.47
2019-03-30T06:10:38.596Z,3.13
2019-03-30T06:13:07.840Z,3.37
2019-03-30T06:15:38.006Z,3.57
2019-03-30T06:18:11.256Z,3.27
2019-03-30T06:20:39.953Z,3.37
2019-03-30T06:23:10.522Z,2.90
2019-03-30T06:25:40.992Z,3.23
2019-03-30T06:28:11.233Z,3.70
2019-03-30T06:30:41.300Z,3.07
2019-03-30T06:33:11.431Z,3.63
2019-03-30T06:35:41.576Z,3.00
2019-03-30T06:38:11.730Z,3.30
2019-03-30T06:40:41.800Z,2.73
2019-03-30T06:43:11.940Z,3.50
2019-03-30T06:45:42.440Z,3.00
2019-03-30T06:48:12.495Z,3.60
2019-03-30T06:50:42.640Z,3.07
2019-03-30T06:53:12.813Z,3.37
2019-03-30T06:55:42.869Z,3.70
2019-03-30T06:58:13.004Z,3.30
2019-03-30T07:00:43.140Z,3.63
2019-03-30T07:03:13.275Z,3.23
2019-03-30T07:05:43.752Z,3.57
2019-03-30T07:08:15.069Z,3.03
2019-03-30T07:10:49.062Z,3.10
2019-03-30T07:13:19.249Z,3.30
2019-03-30T07:15:50.249Z,3.20
2019-03-30T07:18:21.212Z,3.23
2019-03-30T07:20:51.358Z,3.07
2019-03-30T07:23:21.509Z,2.83
2019-03-30T07:25:51.582Z,2.63
2019-03-30T07:28:21.731Z,3.17
2019-03-30T07:30:51.822Z,2.97
2019-03-30T07:33:21.917Z,2.70
2019-03-30T07:35:52.053Z,2.93
2019-03-30T07:38:22.244Z,2.40
2019-03-30T07:40:52.457Z,2.77
2019-03-30T07:43:22.563Z,2.83
2019-03-30T07:45:52.648Z,2.40
2019-03-30T07:48:22.792Z,2.93
2019-03-30T07:50:52.943Z,2.77
2019-03-30T07:53:26.661Z,2.87
2019-03-30T07:56:07.743Z,2.27
2019-03-30T07:58:27.426Z,2.70
2019-03-30T08:00:57.623Z,2.80
2019-03-30T08:03:27.775Z,2.40
2019-03-30T08:05:57.923Z,2.77
2019-03-30T08:08:28.393Z,2.80
2019-03-30T08:10:58.811Z,2.57
2019-03-30T08:13:29.984Z,2.70
2019-03-30T08:16:00.312Z,2.70
2019-03-30T08:18:30.527Z,2.57
2019-03-30T08:21:00.682Z,2.80
2019-03-30T08:23:40.154Z,2.43
2019-03-30T08:26:02.599Z,2.87
2019-03-30T08:28:32.689Z,3.10
2019-03-30T08:31:02.800Z,2.40
2019-03-30T08:33:33.308Z,2.67
2019-03-30T08:36:03.357Z,2.83
2019-03-30T08:38:33.501Z,2.67
2019-03-30T08:41:03.864Z,2.90
2019-03-30T08:43:33.918Z,2.70
2019-03-30T08:46:03.988Z,2.67
2019-03-30T08:48:34.701Z,2.43
2019-03-30T08:51:04.977Z,2.53
2019-03-30T08:53:35.465Z,3.07
2019-03-30T08:56:05.873Z,2.73
2019-03-30T08:58:36.058Z,2.90
2019-03-30T09:01:06.203Z,2.67
2019-03-30T09:03:36.353Z,2.87
2019-03-30T09:06:06.497Z,2.37
2019-03-30T09:08:36.711Z,2.90
2019-03-30T09:11:07.045Z,3.10
2019-03-30T09:13:37.207Z,2.87
2019-03-30T09:16:07.353Z,3.20
2019-03-30T09:18:37.429Z,2.77
2019-03-30T09:21:07.577Z,2.73
2019-03-30T09:23:37.719Z,3.10
2019-03-30T09:26:07.959Z,3.43
2019-03-30T09:28:38.076Z,3.37
2019-03-30T09:31:08.170Z,3.87
2019-03-30T09:33:38.339Z,4.03
2019-03-30T09:36:08.595Z,5.20
2019-03-30T09:38:38.831Z,5.40
2019-03-30T09:41:09.007Z,4.80
2019-03-30T09:43:39.083Z,5.40
2019-03-30T09:46:09.262Z,5.70
2019-03-30T09:48:39.407Z,5.40
2019-03-30T09:51:09.919Z,5.07
2019-03-30T09:53:40.007Z,5.67
2019-03-30T09:56:10.156Z,5.10
2019-03-30T09:58:40.308Z,5.63
2019-03-30T10:01:10.372Z,6.40
2019-03-30T10:03:40.595Z,5.30
2019-03-30T10:06:10.776Z,7.93
2019-03-30T10:08:41.207Z,9.60
2019-03-30T10:11:11.385Z,14.33
2019-03-30T10:13:41.553Z,15.30
2019-03-30T10:16:11.817Z,14.03
2019-03-30T10:18:42.297Z,15.77
2019-03-30T10:21:12.451Z,15.77
2019-03-30T10:23:42.520Z,16.73
2019-03-30T10:26:13.018Z,16.37
2019-03-30T10:28:43.199Z,16.93
2019-03-30T10:31:13.422Z,16.17
2019-03-30T10:33:43.585Z,16.20
2019-03-30T10:36:13.751Z,15.40
2019-03-30T10:38:43.996Z,15.07
2019-03-30T10:41:14.120Z,16.27
2019-03-30T10:43:44.230Z,16.20
2019-03-30T10:46:14.316Z,15.63
2019-03-30T10:48:44.460Z,15.90
2019-03-30T10:51:14.529Z,14.57
2019-03-30T10:53:44.708Z,14.57
2019-03-30T10:56:15.148Z,14.40
2019-03-30T10:58:45.294Z,13.13
2019-03-30T11:01:17.519Z,14.13
2019-03-30T11:03:47.583Z,14.00
2019-03-30T11:06:17.751Z,12.97
2019-03-30T11:08:47.824Z,13.10
2019-03-30T11:11:17.967Z,14.60
2019-03-30T11:13:48.061Z,13.27
2019-03-30T11:16:18.210Z,12.40
2019-03-30T11:18:48.688Z,12.90
2019-03-30T11:21:18.844Z,12.47
2019-03-30T11:23:50.262Z,11.73
2019-03-30T11:26:20.424Z,11.97
2019-03-30T11:28:50.582Z,10.90
2019-03-30T11:31:20.759Z,10.60
2019-03-30T11:33:51.267Z,11.10
2019-03-30T11:36:21.763Z,11.70
2019-03-30T11:38:51.842Z,12.37
2019-03-30T11:41:24.859Z,10.50
2019-03-30T11:43:54.156Z,10.47
2019-03-30T11:46:24.240Z,11.83
2019-03-30T11:48:54.382Z,9.77
2019-03-30T11:51:24.782Z,9.73
2019-03-30T11:53:54.928Z,10.60
2019-03-30T11:56:25.081Z,10.00
2019-03-30T11:58:55.214Z,10.90
2019-03-30T12:01:25.367Z,9.43
2019-03-30T12:03:55.531Z,10.10
2019-03-30T12:06:25.589Z,8.63
2019-03-30T12:08:55.739Z,9.80
2019-03-30T12:11:26.098Z,8.77
2019-03-30T12:13:56.248Z,9.37
2019-03-30T12:16:26.910Z,9.30
2019-03-30T12:18:57.392Z,8.87
2019-03-30T12:21:27.513Z,10.27
2019-03-30T12:23:57.933Z,8.10
2019-03-30T12:26:28.090Z,8.40
2019-03-30T12:28:58.272Z,9.00
2019-03-30T12:31:28.443Z,8.87
2019-03-30T12:33:58.695Z,8.83
2019-03-30T12:36:29.145Z,7.87
2019-03-30T12:38:59.216Z,8.17
2019-03-30T12:41:29.440Z,8.13
2019-03-30T12:43:59.582Z,8.63
2019-03-30T12:46:30.291Z,8.43
2019-03-30T12:49:00.451Z,7.70
2019-03-30T12:51:30.517Z,8.27
2019-03-30T12:54:00.682Z,8.67
2019-03-30T12:56:30.832Z,9.57
2019-03-30T12:59:01.322Z,8.60
2019-03-30T13:01:31.773Z,8.27
2019-03-30T13:04:01.870Z,8.37
2019-03-30T13:06:32.013Z,8.50
2019-03-30T13:09:02.264Z,8.30
2019-03-30T13:11:32.371Z,9.20
2019-03-30T13:14:02.460Z,8.57
2019-03-30T13:16:32.805Z,8.97
2019-03-30T13:19:03.088Z,8.60
2019-03-30T13:21:33.235Z,8.90
2019-03-30T13:24:03.316Z,8.93
2019-03-30T13:26:33.496Z,9.87
2019-03-30T13:29:03.649Z,8.57
2019-03-30T13:31:33.853Z,8.83
2019-03-30T13:34:04.366Z,8.60
2019-03-30T13:36:39.365Z,8.40
2019-03-30T13:39:09.597Z,8.20
2019-03-30T13:41:39.670Z,8.80
2019-03-30T13:44:09.886Z,9.33
2019-03-30T13:46:40.397Z,8.67
2019-03-30T13:49:10.549Z,9.03
2019-03-30T13:51:40.716Z,10.00
2019-03-30T13:54:11.480Z,9.90
2019-03-30T13:56:41.660Z,9.33
2019-03-30T13:59:11.740Z,9.97
2019-03-30T14:01:41.909Z,9.40
2019-03-30T14:04:12.162Z,10.30
2019-03-30T14:06:42.886Z,9.77
2019-03-30T14:09:13.164Z,9.77
2019-03-30T14:11:43.336Z,9.43
2019-03-30T14:14:13.529Z,9.80
2019-03-30T14:16:43.625Z,9.37
2019-03-30T14:19:13.844Z,9.90
2019-03-30T14:21:44.023Z,9.33
2019-03-30T14:24:14.118Z,9.13
2019-03-30T14:26:44.201Z,9.67
2019-03-30T14:29:14.330Z,10.07
2019-03-30T14:31:44.700Z,8.87
2019-03-30T14:34:14.812Z,8.80
2019-03-30T14:36:45.276Z,9.63
2019-03-30T14:39:15.440Z,10.60
2019-03-30T14:41:45.598Z,9.67
2019-03-30T14:44:15.760Z,10.23
2019-03-30T14:46:45.977Z,9.10
2019-03-30T14:49:16.134Z,8.87
2019-03-30T14:51:46.295Z,8.37
2019-03-30T14:54:17.805Z,9.60
2019-03-30T14:56:47.932Z,8.20
2019-03-30T14:59:18.104Z,8.27
2019-03-30T15:01:48.276Z,8.73
2019-03-30T15:04:18.701Z,7.60
2019-03-30T15:06:48.867Z,7.93
2019-03-30T15:09:18.949Z,8.50
2019-03-30T15:11:49.043Z,8.23
2019-03-30T15:14:19.207Z,7.70
2019-03-30T15:16:49.379Z,8.40
2019-03-30T15:19:19.546Z,8.07
2019-03-30T15:21:49.743Z,7.77
2019-03-30T15:24:20.164Z,9.23
2019-03-30T15:26:59.871Z,8.10
2019-03-30T15:29:22.168Z,7.97
2019-03-30T15:31:52.366Z,8.53
2019-03-30T15:34:22.517Z,8.47
2019-03-30T15:36:52.631Z,8.00
2019-03-30T15:39:23.038Z,8.97
2019-03-30T15:41:53.212Z,9.07
2019-03-30T15:44:23.380Z,9.20
2019-03-30T15:46:53.864Z,8.67
2019-03-30T15:49:24.413Z,9.70
2019-03-30T15:51:54.598Z,9.60
2019-03-30T15:54:25.047Z,9.27
2019-03-30T15:56:55.545Z,9.23
2019-03-30T15:59:25.727Z,9.13
2019-03-30T16:01:55.817Z,9.47
2019-03-30T16:04:26.015Z,9.43
2019-03-30T16:06:56.190Z,10.63
2019-03-30T16:09:26.367Z,9.80
2019-03-30T16:11:56.575Z,9.60
2019-03-30T16:14:26.675Z,10.23
2019-03-30T16:16:56.773Z,9.27
2019-03-30T16:19:26.911Z,8.87
2019-03-30T16:21:57.010Z,8.80
2019-03-30T16:24:30.017Z,9.17
2019-03-30T16:26:59.238Z,9.93
2019-03-30T16:29:29.369Z,9.30
2019-03-30T16:31:59.548Z,9.27
2019-03-30T16:34:29.720Z,9.43
2019-03-30T16:36:59.932Z,9.20
2019-03-30T16:39:30.131Z,8.63
2019-03-30T16:42:00.498Z,8.47
2019-03-30T16:44:30.681Z,7.83
2019-03-30T16:47:00.922Z,8.50
2019-03-30T16:49:31.162Z,8.60
2019-03-30T16:52:01.581Z,7.67
2019-03-30T16:54:31.754Z,8.27
2019-03-30T16:57:01.865Z,8.17
2019-03-30T16:59:31.945Z,7.87
2019-03-30T17:02:02.190Z,9.90
2019-03-30T17:04:32.794Z,10.53
2019-03-30T17:07:02.959Z,14.73
2019-03-30T17:09:33.082Z,16.67
2019-03-30T17:12:03.257Z,15.90
2019-03-30T17:14:33.492Z,16.43
2019-03-30T17:17:04.059Z,15.70
2019-03-30T17:19:34.217Z,15.67
2019-03-30T17:22:04.422Z,16.23
2019-03-30T17:24:34.828Z,15.93
2019-03-30T17:27:04.997Z,16.00
2019-03-30T17:29:35.516Z,16.67
2019-03-30T17:32:06.000Z,15.13
2019-03-30T17:34:36.467Z,15.80
2019-03-30T17:37:06.720Z,15.87
2019-03-30T17:39:36.829Z,17.53
2019-03-30T17:42:07.015Z,15.10
2019-03-30T17:44:37.497Z,14.03
2019-03-30T17:47:07.943Z,14.10
2019-03-30T17:49:38.401Z,15.10
2019-03-30T17:52:09.188Z,16.47
2019-03-30T17:54:40.040Z,13.77
2019-03-30T17:57:10.301Z,13.87
2019-03-30T17:59:40.380Z,14.33
2019-03-30T18:02:10.549Z,12.90
2019-03-30T18:04:40.732Z,12.77
2019-03-30T18:07:13.648Z,13.60
2019-03-30T18:09:42.845Z,13.40
2019-03-30T18:12:12.998Z,11.47
2019-03-30T18:14:43.274Z,12.83
2019-03-30T18:17:13.375Z,12.77
2019-03-30T18:19:43.555Z,12.70
2019-03-30T18:22:13.674Z,12.70
2019-03-30T18:24:43.874Z,11.97
2019-03-30T18:27:13.987Z,11.27
2019-03-30T18:29:44.127Z,11.23
2019-03-30T18:32:14.311Z,11.37
2019-03-30T18:34:44.423Z,10.90
2019-03-30T18:37:14.859Z,11.67
2019-03-30T18:39:45.268Z,11.03
2019-03-30T18:42:15.550Z,10.80
2019-03-30T18:44:45.780Z,11.20
2019-03-30T18:47:15.994Z,11.23
2019-03-30T18:49:46.538Z,10.60
2019-03-30T18:52:16.720Z,11.03
2019-03-30T18:54:47.099Z,10.17
2019-03-30T18:57:17.259Z,11.43
2019-03-30T18:59:47.357Z,10.77
2019-03-30T19:02:19.182Z,9.80
2019-03-30T19:04:49.395Z,9.37
2019-03-30T19:07:19.948Z,10.27
2019-03-30T19:09:50.131Z,10.23
2019-03-30T19:12:20.214Z,10.47
2019-03-30T19:14:50.364Z,9.33
2019-03-30T19:17:20.886Z,9.63
2019-03-30T19:19:51.351Z,8.93
2019-03-30T19:22:21.509Z,8.97
2019-03-30T19:24:51.690Z,9.33
2019-03-30T19:27:21.908Z,8.93
2019-03-30T19:29:52.398Z,8.77
2019-03-30T19:32:24.319Z,9.27
2019-03-30T19:34:54.750Z,8.63
2019-03-30T19:37:24.923Z,10.03
2019-03-30T19:39:55.145Z,8.53
2019-03-30T19:42:25.321Z,8.93
2019-03-30T19:44:55.492Z,8.93
2019-03-30T19:47:25.597Z,9.63
2019-03-30T19:49:55.818Z,9.63
2019-03-30T19:52:39.248Z,9.60
2019-03-30T19:54:57.870Z,9.07
2019-03-30T19:57:28.287Z,9.77
2019-03-30T19:59:58.485Z,8.73
2019-03-30T20:02:28.582Z,9.17
2019-03-30T20:04:59.141Z,8.77
2019-03-30T20:07:29.429Z,8.60
2019-03-30T20:09:59.899Z,9.00
2019-03-30T20:12:30.208Z,9.27
2019-03-30T20:15:00.458Z,8.73
2019-03-30T20:17:30.530Z,9.23
2019-03-30T20:20:00.656Z,8.47
2019-03-30T20:22:30.993Z,8.37
2019-03-30T20:25:01.375Z,9.23
2019-03-30T20:27:31.572Z,8.50
2019-03-30T20:30:01.670Z,8.33
2019-03-30T20:32:31.778Z,8.30
2019-03-30T20:35:01.950Z,8.73
2019-03-30T20:37:32.150Z,8.13
2019-03-30T20:40:02.268Z,9.03
2019-03-30T20:42:32.895Z,8.20
2019-03-30T20:45:03.428Z,8.10
2019-03-30T20:47:33.866Z,8.57
2019-03-30T20:50:04.479Z,8.50
2019-03-30T20:52:34.647Z,8.90
2019-03-30T20:55:05.208Z,9.20
2019-03-30T20:57:35.340Z,8.70
2019-03-30T21:00:07.127Z,8.00
2019-03-30T21:02:37.225Z,9.00
2019-03-30T21:05:07.775Z,8.10
2019-03-30T21:07:41.712Z,7.93
2019-03-30T21:10:10.264Z,8.77
2019-03-30T21:12:40.425Z,8.50
2019-03-30T21:15:10.631Z,8.17
2019-03-30T21:17:40.795Z,8.37
2019-03-30T21:20:11.045Z,8.07
2019-03-30T21:22:41.118Z,7.80
2019-03-30T21:25:11.345Z,7.70
2019-03-30T21:27:41.913Z,7.57
2019-03-30T21:30:12.136Z,7.27
2019-03-30T21:32:42.361Z,7.83
2019-03-30T21:35:12.883Z,7.93
2019-03-30T21:37:43.074Z,7.90
2019-03-30T21:40:13.222Z,7.77
2019-03-30T21:42:43.381Z,8.23
2019-03-30T21:45:13.534Z,7.37
2019-03-30T21:47:43.692Z,8.03
2019-03-30T21:50:13.939Z,7.60
2019-03-30T21:52:44.822Z,7.93
2019-03-30T21:55:14.998Z,7.93
2019-03-30T21:57:45.201Z,7.10
2019-03-30T22:00:21.227Z,7.90
2019-03-30T22:02:51.374Z,8.23
2019-03-30T22:05:21.612Z,6.73
2019-03-30T22:07:51.690Z,7.27
2019-03-30T22:10:28.281Z,7.23
2019-03-30T22:12:59.236Z,8.53
2019-03-30T22:15:29.421Z,6.90
2019-03-30T22:17:59.495Z,7.57
2019-03-30T22:20:30.042Z,7.40
2019-03-30T22:23:00.225Z,7.67
2019-03-30T22:25:30.414Z,7.93
2019-03-30T22:28:00.555Z,7.30
2019-03-30T22:30:30.974Z,6.87
2019-03-30T22:33:01.054Z,7.00
2019-03-30T22:35:31.203Z,7.70
2019-03-30T22:38:01.309Z,6.73
2019-03-30T22:40:31.465Z,6.90
2019-03-30T22:43:01.627Z,7.67
2019-03-30T22:45:31.768Z,6.90
2019-03-30T22:48:02.119Z,6.70
2019-03-30T22:50:32.283Z,7.47
2019-03-30T22:53:02.435Z,7.10
2019-03-30T22:55:32.582Z,7.77
2019-03-30T22:58:02.655Z,7.20
2019-03-30T23:00:51.888Z,6.63
2019-03-30T23:03:22.057Z,8.10
2019-03-30T23:05:52.141Z,7.60
2019-03-30T23:08:22.277Z,6.83
2019-03-30T23:10:52.477Z,8.23
2019-03-30T23:13:22.621Z,7.77
2019-03-30T23:15:53.019Z,8.70
2019-03-30T23:18:23.157Z,8.03
2019-03-30T23:20:53.313Z,8.87
2019-03-30T23:23:23.799Z,8.50
2019-03-30T23:25:54.304Z,8.83
2019-03-30T23:28:24.437Z,9.43
2019-03-30T23:30:54.967Z,8.67
2019-03-30T23:33:25.210Z,9.07
2019-03-30T23:35:55.372Z,8.30
2019-03-30T23:38:25.450Z,9.07
2019-03-30T23:40:55.652Z,8.73
2019-03-30T23:43:25.806Z,9.07
2019-03-30T23:45:55.947Z,9.50
2019-03-30T23:48:26.432Z,10.00
2019-03-30T23:50:56.592Z,8.53
2019-03-30T23:53:26.665Z,9.40
2019-03-30T23:55:57.594Z,9.33
2019-03-30T23:58:27.772Z,9.00
